Pineville, Pennsylvania
Current Conditions -  °F | °C
As of 5:54 AM on Wednesday 26 Nov 2014 (Local Time) from KDYL Reporting Station
Light Rain Light Rain  
Wind Chill: 37°   Ceiling: 6500
Heat Index: 42°   Visibility: 10mi
Dew Point: 32°   Wind: 9mph
Humidity: 67%   Direction: 30°NNE
Pressure: 30.09"   Gusts: NA
Location:  40.29°N, 75.01°W
Report Text: KDYL 261054Z AUTO 03008KT 10SM -RA OVC065 06/00 A3009 RMK AO2 RAB13 SLP191 P0000 T00560000
Loading
Personal Weather Stations






























Interactive Weather Map New forecast layout! Learn more

10-Day Weather Forecast

Advertisements
Track Severe Weather on mobile